地図

経路データ

SID SEASON NUMBER BASIN SUBBASIN NAME ISO_TIME NATURE LAT LON WMO_WIND WMO_PRES WMO_AGENCY TRACK_TYPE DIST2LAND LANDFALL IFLAG USA_AGENCY USA_ATCF_ID USA_LAT USA_LON USA_RECORD USA_STATUS USA_WIND USA_PRES USA_SSHS USA_R34_NE USA_R34_SE USA_R34_SW USA_R34_NW USA_R50_NE USA_R50_SE USA_R50_SW USA_R50_NW USA_R64_NE USA_R64_SE USA_R64_SW USA_R64_NW USA_POCI USA_ROCI USA_RMW USA_EYE TOKYO_LAT TOKYO_LON TOKYO_GRADE TOKYO_WIND TOKYO_PRES TOKYO_R50_DIR TOKYO_R50_LONG TOKYO_R50_SHORT TOKYO_R30_DIR TOKYO_R30_LONG TOKYO_R30_SHORT TOKYO_LAND CMA_LAT CMA_LON CMA_CAT CMA_WIND CMA_PRES HKO_LAT HKO_LON HKO_CAT HKO_WIND HKO_PRES NEWDELHI_LAT NEWDELHI_LON NEWDELHI_GRADE NEWDELHI_WIND NEWDELHI_PRES NEWDELHI_CI NEWDELHI_DP NEWDELHI_POCI REUNION_LAT REUNION_LON REUNION_TYPE REUNION_WIND REUNION_PRES REUNION_TNUM REUNION_CI REUNION_RMW REUNION_R34_NE REUNION_R34_SE REUNION_R34_SW REUNION_R34_NW REUNION_R50_NE REUNION_R50_SE REUNION_R50_SW REUNION_R50_NW REUNION_R64_NE REUNION_R64_SE REUNION_R64_SW REUNION_R64_NW BOM_LAT BOM_LON BOM_TYPE BOM_WIND BOM_PRES BOM_TNUM BOM_CI BOM_RMW BOM_R34_NE BOM_R34_SE BOM_R34_SW BOM_R34_NW BOM_R50_NE BOM_R50_SE BOM_R50_SW BOM_R50_NW BOM_R64_NE BOM_R64_SE BOM_R64_SW BOM_R64_NW BOM_ROCI BOM_POCI BOM_EYE BOM_POS_METHOD BOM_PRES_METHOD NADI_LAT NADI_LON NADI_CAT NADI_WIND NADI_PRES WELLINGTON_LAT WELLINGTON_LON WELLINGTON_WIND WELLINGTON_PRES DS824_LAT DS824_LON DS824_STAGE DS824_WIND DS824_PRES TD9636_LAT TD9636_LON TD9636_STAGE TD9636_WIND TD9636_PRES TD9635_LAT TD9635_LON TD9635_WIND TD9635_PRES TD9635_ROCI NEUMANN_LAT NEUMANN_LON NEUMANN_CLASS NEUMANN_WIND NEUMANN_PRES MLC_LAT MLC_LON MLC_CLASS MLC_WIND MLC_PRES USA_GUST BOM_GUST BOM_GUST_PER REUNION_GUST REUNION_GUST_PER USA_SEAHGT USA_SEARAD_NE USA_SEARAD_SE USA_SEARAD_SW USA_SEARAD_NW STORM_SPEED STORM_DIR
2002215N34140 2002 44 WP MM NOT_NAMED 2002-08-02 18:00:00 TS 33.7000 140.400 main 141 141 O_____________ jtwc_wp WP172002 33.7000 140.400 TD 15 1006 -1 6 132
2002215N34140 2002 44 WP MM NOT_NAMED 2002-08-02 21:00:00 TS 33.4926 140.683 main 172 172 P_____________ WP172002 33.4926 140.683 TD 15 1006 -1 6 129
2002215N34140 2002 44 WP MM NOT_NAMED 2002-08-03 00:00:00 TS 33.3000 141.000 main 205 205 O_____________ jtwc_wp WP172002 33.3000 141.000 TD 15 1006 -1 7 122
2002215N34140 2002 44 WP MM NOT_NAMED 2002-08-03 03:00:00 TS 33.1349 141.377 main 243 243 P_____________ WP172002 33.1349 141.377 TD 15 1006 -1 7 114
2002215N34140 2002 44 WP MM NOT_NAMED 2002-08-03 06:00:00 TS 33.0000 141.800 main 274 274 O_____________ jtwc_wp WP172002 33.0000 141.800 TD 15 1006 -1 8 110
2002215N34140 2002 44 WP MM NOT_NAMED 2002-08-03 09:00:00 TS 32.8774 142.243 main 305 305 P_____________ WP172002 32.8774 142.243 TD 15 1006 -1 8 105
2002215N34140 2002 44 WP MM NOT_NAMED 2002-08-03 12:00:00 TS 32.8000 142.700 main 341 341 O_____________ jtwc_wp WP172002 32.8000 142.700 TD 15 1006 -1 8 97
2002215N34140 2002 44 WP MM NOT_NAMED 2002-08-03 15:00:00 TS 32.7773 143.150 main 365 365 P_____________ WP172002 32.7773 143.150 TD 17 1005 -1 8 90
2002215N34140 2002 44 WP MM NOT_NAMED 2002-08-03 18:00:00 TS 32.8000 143.600 main 397 397 O_____________ jtwc_wp WP172002 32.8000 143.600 TD 20 1004 -1 1006 90 50 7 86
2002215N34140 2002 44 WP MM NOT_NAMED 2002-08-03 21:00:00 TS 32.8270 144.020 main 425 425 P_____________ WP172002 32.8270 144.020 TD 20 1004 -1 1006 90 50 8 82
2002215N34140 2002 44 WP MM NOT_NAMED 2002-08-04 00:00:00 TS 32.9000 144.500 main 454 454 O_____________ jtwc_wp WP172002 32.9000 144.500 TD 20 1004 -1 1006 90 50 9 77
2002215N34140 2002 44 WP MM NOT_NAMED 2002-08-04 03:00:00 TS 33.0351 145.120 main 488 488 P_____________ WP172002 33.0351 145.120 TD 20 1004 -1 11 75
2002215N34140 2002 44 WP MM NOT_NAMED 2002-08-04 06:00:00 TS 33.2000 145.800 main 527 527 O_____________ jtwc_wp WP172002 33.2000 145.800 TD 20 1004 -1 12 74
2002215N34140 2002 44 WP MM NOT_NAMED 2002-08-04 09:00:00 TS 33.3498 146.458 main 577 572 P_____________ WP172002 33.3498 146.458 TD 20 1004 -1 11 75
2002215N34140 2002 44 WP MM NOT_NAMED 2002-08-04 12:00:00 TS 33.5000 147.100 main 616 616 O_____________ jtwc_wp WP172002 33.5000 147.100 TD 20 1004 -1 11 74
2002215N34140 2002 44 WP MM NOT_NAMED 2002-08-04 15:00:00 TS 33.6572 147.715 main 658 658 P_____________ WP172002 33.6572 147.715 TD 20 1004 -1 10 73
2002215N34140 2002 44 WP MM NOT_NAMED 2002-08-04 18:00:00 TS 33.8000 148.300 main 706 706 O_____________ jtwc_wp WP172002 33.8000 148.300 TD 20 1004 -1 10 75
2002215N34140 2002 44 WP MM NOT_NAMED 2002-08-04 21:00:00 TS 33.9070 148.850 main 755 755 P_____________ WP172002 33.9070 148.850 TD 20 1004 -1 9 78
2002215N34140 2002 44 WP MM NOT_NAMED 2002-08-05 00:00:00 TS 34.0000 149.400 main 796 796 O_____________ jtwc_wp WP172002 34.0000 149.400 TD 20 1004 -1 10 78
2002215N34140 2002 44 WP MM NOT_NAMED 2002-08-05 03:00:00 TS 34.0998 149.993 main 846 846 P_____________ WP172002 34.0998 149.993 TD 22 1001 -1 10 79
2002215N34140 2002 44 WP MM NOT_NAMED 2002-08-05 06:00:00 TS 34.2000 150.600 main 897 897 O_____________ jtwc_wp WP172002 34.2000 150.600 TD 25 999 -1 1001 100 25 10 80
2002215N34140 2002 44 WP MM NOT_NAMED 2002-08-05 09:00:00 TS 34.2850 151.223 main 948 948 P_____________ WP172002 34.2850 151.223 TD 25 1000 -1 10 79
2002215N34140 2002 44 WP MM NOT_NAMED 2002-08-05 12:00:00 TS 34.4000 151.800 main 1000 1000 O_____________ jtwc_wp WP172002 34.4000 151.800 TD 25 1002 -1 9 71
2002215N34140 2002 44 WP MM NOT_NAMED 2002-08-05 15:00:00 TS 34.5922 152.287 main 1040 1040 P_____________ WP172002 34.5922 152.287 TD 25 1002 -1 8 62
2002215N34140 2002 44 WP MM NOT_NAMED 2002-08-05 18:00:00 TS 34.8000 152.700 main 1070 1070 O_____________ jtwc_wp WP172002 34.8000 152.700 TD 25 1002 -1 7 60
2002215N34140 2002 44 WP MM NOT_NAMED 2002-08-05 21:00:00 TS 34.9573 153.065 main 1091 1091 P_____________ WP172002 34.9573 153.065 TD 25 1002 -1 6 62
2002215N34140 2002 44 WP MM NOT_NAMED 2002-08-06 00:00:00 TS 35.1000 153.400 main 1109 1109 O_____________ jtwc_wp WP172002 35.1000 153.400 TD 25 1002 -1 6 62
2002215N34140 2002 44 WP MM NOT_NAMED 2002-08-06 03:00:00 TS 35.2478 153.745 main 1128 1128 P_____________ WP172002 35.2478 153.745 TD 25 1002 -1 6 62
2002215N34140 2002 44 WP MM NOT_NAMED 2002-08-06 06:00:00 TS 35.4000 154.100 main 1138 O_____________ jtwc_wp WP172002 35.4000 154.100 TD 25 1002 -1 7 62

デジタル台風データ・検索

IBTrACS Databaseについて

本データベースは、米国NOAAが公開する1842年以降の世界の熱帯低気圧のベストトラックデータアーカイブInternational Best Track Archive for Climate Stewardship (IBTrACS)を、ウェブで閲覧しやすい形式に変換したものです。

最終更新日:2021-12-08